Meteo Giornale » Osservazioni meteo Italia » Udine-Rivolto

ore: 06:55 - Osservazioni Meteo Udine-Rivolto
Lat. 45° 59' N Lon. 13° 2' E Alt. 51 metri s.l.m.

poco_nuvoloso

21 °C

Poco Nuvoloso

Temp. 24 Ore

21 °C

31 °C

Nord

13 Km/h

Dew point 18 °C

Umidità 82 %

Visibilità  10 Km

Il sole sorge alle ore 06:29

Il sole tramonta alle ore 19:45

Data e Ora Cielo e Fenomeni T °C DP °C Um. % Pres. hPa Vis. km Vento km/h
Oggi h: 06:55 poco_nuvoloso Poco Nuvoloso 21 18 82 1018 10 N 13
Oggi h: 05:55 poco_nuvoloso Poco Nuvoloso 21 15 68 1017 10 N 13
Oggi h: 04:55 poco_nuvoloso Poco Nuvoloso 23 17 68 1017 10 N 14.8
Oggi h: 03:55 poco_nuvoloso Poco Nuvoloso 23 17 68 1017 10 N 14.8
Oggi h: 02:55 poco_nuvoloso Poco Nuvoloso 23 17 68 1018 10 N/NO 16.7
Oggi h: 01:55 poco_nuvoloso Poco Nuvoloso 23 17 68 1018 10 N 20.3
Oggi h: 00:55 poco_nuvoloso Poco Nuvoloso 24 17 64 1018 10 N 13
Ieri h: 23:55 nuvoloso Nuvoloso 23 19 78 1018 10 N 13
Ieri h: 22:55 poco_nuvoloso Poco Nuvoloso 23 19 78 1017 10 N/NO 11.1
Ieri h: 21:55 sereno Sereno 23 19 78 1017 10 N/NO 9.3
Ieri h: 20:55 sereno Sereno 25 19 69 1016 10 NO 9.3
Ieri h: 19:55 sereno Sereno 27 20 65 1016 10 N 5.5
Ieri h: 18:55 sereno Sereno 30 17 45 1016 10 N 5.5
Ieri h: 17:55 sereno Sereno 31 16 40 1016 10 N 5.5
Ieri h: 16:55 poco_nuvoloso Poco Nuvoloso 31 16 40 1017 10 N 3.7
Ieri h: 15:55 poco_nuvoloso Poco Nuvoloso 31 16 40 1017 10 N 3.7
Ieri h: 14:55 poco_nuvoloso Poco Nuvoloso 31 16 40 1017 10 NE 9.3
Ieri h: 13:55 poco_nuvoloso Poco Nuvoloso 30 17 45 1018 10 N/NE 11.1
Ieri h: 12:55 nuvoloso Nuvoloso 29 16 45 1019 10 N/NE 11.1
Ieri h: 11:55 poco_nuvoloso Poco Nuvoloso 29 16 45 1019 10 NE 14.8
Ieri h: 10:55 nuvoloso Nuvoloso 28 16 48 1019 10 NE 20.3
Ieri h: 09:55 nuvoloso Nuvoloso 27 18 57 1018 10 N 13
Ieri h: 08:55 nuvoloso Nuvoloso 24 17 64 1018 10 N 13
Ieri h: 07:55 poco_nuvoloso Poco Nuvoloso 21 16 73 1017 10 N 11.1